Time;durP1;ratioP1;P1;durP2;ratioP2;P2;SDS_P1;SDS_P2;PMS_P1;PMS_P2;Temp;Humidity;BMP_temperature;BMP_pressure;BME280_temperature;BME280_humidity;BME280_pressure;Samples;Min_cycle;Max_cycle;Signal;HPM_P1;HPM_P2
2023/01/27 00:00:14;;;;;;;208.18;189.60;;;;;;;3.55;79.79;102479.88;4984716;28;20144;-73
2023/01/27 00:02:42;;;;;;;234.07;215.93;;;;;;;3.33;80.10;102478.91;4986183;28;20487;-75
2023/01/27 00:05:10;;;;;;;231.52;213.70;;;;;;;3.51;79.96;102479.38;4996280;28;20500;-72
2023/01/27 00:07:35;;;;;;;227.27;209.18;;;;;;;3.56;79.58;102476.22;4968891;28;20132;-72
2023/01/27 00:10:02;;;;;;;233.77;215.70;;;;;;;3.33;80.10;102475.44;4984721;28;20495;-71
2023/01/27 00:15:13;;;;;;;208.02;189.13;;;;;;;3.32;80.45;102484.38;5000020;28;20043;-72
2023/01/27 00:17:39;;;;;;;224.48;206.45;;;;;;;3.32;80.44;102495.81;4987067;28;20496;-72
2023/01/27 00:20:05;;;;;;;232.23;214.52;;;;;;;3.45;80.02;102496.00;4998214;28;20041;-72
2023/01/27 00:25:16;;;;;;;226.88;209.15;;;;;;;3.36;80.33;102486.50;4993700;28;20117;-71
2023/01/27 00:27:42;;;;;;;232.13;214.02;;;;;;;3.41;80.39;102494.72;4981101;28;20487;-70
2023/01/27 00:30:09;;;;;;;212.02;193.32;;;;;;;3.51;80.04;102489.97;4983454;28;20499;-72
2023/01/27 00:35:19;;;;;;;229.85;212.13;;;;;;;3.55;79.95;102496.56;4982471;28;20030;-72
2023/01/27 00:37:45;;;;;;;232.50;214.80;;;;;;;3.47;80.32;102498.50;4985090;28;20036;-71
2023/01/27 00:40:12;;;;;;;206.73;188.27;;;;;;;3.45;80.64;102505.78;4965364;28;20034;-71
2023/01/27 00:42:37;;;;;;;210.55;191.85;;;;;;;3.62;80.58;102504.63;4981478;28;20038;-73
2023/01/27 00:47:51;;;;;;;235.73;217.27;;;;;;;3.49;81.32;102510.53;4980024;28;20504;-72
2023/01/27 00:50:17;;;;;;;214.40;195.25;;;;;;;3.58;81.06;102510.47;4965045;28;20034;-72
2023/01/27 00:52:43;;;;;;;231.77;213.77;;;;;;;3.48;81.29;102511.53;4985254;28;20038;-72
2023/01/27 00:55:14;;;;;;;211.65;192.90;;;;;;;3.54;81.50;102524.09;4979827;28;20598;-70
2023/01/27 00:57:43;;;;;;;210.70;192.15;;;;;;;3.34;81.93;102520.28;5003499;28;20873;-73
2023/01/27 01:00:14;;;;;;;233.13;214.80;;;;;;;3.55;81.14;102520.41;4965974;28;20114;-73
2023/01/27 01:02:40;;;;;;;213.98;195.05;;;;;;;3.39;81.57;102525.88;4983305;28;20038;-72
2023/01/27 01:05:05;;;;;;;231.65;213.50;;;;;;;3.45;81.73;102526.97;4983349;28;20041;-71
2023/01/27 01:07:31;;;;;;;232.65;214.50;;;;;;;3.40;81.60;102529.34;4999375;28;20539;-71
2023/01/27 01:10:00;;;;;;;214.85;195.88;;;;;;;3.45;81.52;102516.38;4968555;28;20464;-72
2023/01/27 01:12:25;;;;;;;229.10;211.27;;;;;;;3.60;80.80;102524.38;4983834;28;20804;-72
2023/01/27 01:14:51;;;;;;;213.07;194.27;;;;;;;3.44;81.59;102531.44;4999832;28;20063;-71
2023/01/27 01:17:17;;;;;;;233.85;215.57;;;;;;;3.40;81.51;102521.41;4963545;28;20042;-72
2023/01/27 01:19:42;;;;;;;211.65;193.05;;;;;;;3.63;80.91;102531.94;4980283;28;20038;-72
2023/01/27 01:22:08;;;;;;;232.02;213.80;;;;;;;3.56;80.94;102532.66;4984963;28;20033;-72
2023/01/27 01:24:33;;;;;;;233.73;215.45;;;;;;;3.69;nan;102539.19;4999334;28;20106;-71
2023/01/27 01:26:59;;;;;;;233.85;215.35;;;;;;;3.70;80.74;102530.22;4981366;28;20038;-71
2023/01/27 01:29:24;;;;;;;234.88;216.50;;;;;;;3.72;80.92;102533.50;5016473;28;20046;-71
2023/01/27 01:31:51;;;;;;;213.55;194.77;;;;;;;3.60;81.08;102529.66;4983152;28;20727;-72
2023/01/27 01:34:17;;;;;;;215.27;196.38;;;;;;;3.62;81.01;102543.56;4980313;28;20034;-72
2023/01/27 01:36:42;;;;;;;213.50;194.73;;;;;;;3.56;81.23;102534.50;5001378;28;20127;-71
2023/01/27 01:39:08;;;;;;;233.88;215.55;;;;;;;3.56;81.01;102540.59;4980644;28;20049;-72
2023/01/27 01:41:34;;;;;;;213.00;194.27;;;;;;;3.48;81.64;102538.03;4964831;28;20054;-73
2023/01/27 01:44:20;;;;;;;235.07;216.63;;;;;;;3.74;80.95;102542.13;4980319;28;20042;-72
2023/01/27 01:46:46;;;;;;;211.95;193.18;;;;;;;3.66;81.32;102550.13;4996667;28;20487;-71
2023/01/27 01:49:11;;;;;;;233.77;215.65;;;;;;;3.76;80.54;102550.72;4981256;28;20045;-72
2023/01/27 01:51:46;;;;;;;233.43;215.13;;;;;;;3.62;81.59;102551.50;4999029;28;20037;-72
2023/01/27 01:54:22;;;;;;;234.20;215.95;;;;;;;3.64;81.71;102549.50;4964722;28;20042;-73
2023/01/27 01:57:10;;;;;;;212.30;193.57;;;;;;;3.64;81.73;102550.31;4967903;28;20042;-73
2023/01/27 01:59:59;;;;;;;231.75;213.68;;;;;;;3.61;82.11;102557.81;4982447;28;20389;-73
2023/01/27 02:02:25;;;;;;;231.98;213.85;;;;;;;3.59;82.33;102554.50;4983852;28;20075;-72
2023/01/27 02:05:10;;;;;;;214.07;195.20;;;;;;;3.53;83.12;102566.66;4981584;28;20033;-71
2023/01/27 02:07:57;;;;;;;233.85;215.50;;;;;;;3.40;83.53;102559.31;4964939;28;20042;-72
2023/01/27 02:10:23;;;;;;;232.95;214.68;;;;;;;3.29;84.26;102565.00;4981619;28;20137;-75
2023/01/27 02:12:49;;;;;;;213.75;194.95;;;;;;;3.34;84.48;102557.34;5001194;28;20034;-72
2023/01/27 02:15:14;;;;;;;233.65;215.25;;;;;;;3.35;83.84;102563.47;5012277;28;20112;-70
2023/01/27 02:17:40;;;;;;;231.85;213.73;;;;;;;3.34;84.32;102559.19;4975751;28;20488;-71
2023/01/27 02:20:25;;;;;;;213.73;194.88;;;;;;;3.48;83.56;102569.81;4996915;28;20036;-72
2023/01/27 02:23:26;;;;;;;234.18;215.85;;;;;;;3.32;83.91;102569.97;4997217;28;20047;-71
2023/01/27 02:25:57;;;;;;;234.43;216.10;;;;;;;3.26;84.63;102575.97;4979445;28;20482;-71
2023/01/27 02:28:26;;;;;;;;;;;;;;;3.23;84.48;102571.00;4979714;28;20053;-70
2023/01/27 02:30:54;;;;;;;232.27;214.27;;;;;;;3.38;83.53;102576.34;4995019;28;20271;-72
2023/01/27 02:33:20;;;;;;;235.38;216.88;;;;;;;3.48;83.10;102574.31;4979685;28;20310;-72
2023/01/27 02:36:00;;;;;;;232.70;214.40;;;;;;;3.40;83.24;102577.03;4998168;28;20868;-71
2023/01/27 02:38:31;;;;;;;210.93;192.40;;;;;;;3.37;83.36;102578.19;4957563;28;20038;-72
2023/01/27 02:41:03;;;;;;;216.00;196.90;;;;;;;3.24;83.99;102584.06;4978385;28;20042;-72
2023/01/27 02:43:29;;;;;;;236.40;217.80;;;;;;;3.29;83.92;102578.25;4979148;28;20074;-73
2023/01/27 02:45:55;;;;;;;211.00;192.45;;;;;;;3.25;84.09;102590.16;4963205;28;20105;-72
2023/01/27 02:48:27;;;;;;;230.57;212.68;;;;;;;3.40;83.12;102585.78;4982894;28;20065;-72
2023/01/27 02:50:54;;;;;;;233.60;215.07;;;;;;;3.32;83.65;102591.16;4975981;28;20034;-71
2023/01/27 02:53:20;;;;;;;213.30;194.43;;;;;;;3.51;83.20;102585.34;4962032;28;20042;-73
2023/01/27 02:55:45;;;;;;;211.93;193.25;;;;;;;3.33;83.80;102587.50;4995501;28;20092;-72
2023/01/27 02:58:14;;;;;;;234.20;215.85;;;;;;;3.24;83.88;102588.53;4983365;28;20034;-71
2023/01/27 03:00:50;;;;;;;234.98;216.50;;;;;;;3.13;84.28;102587.13;5001781;28;20026;-73
2023/01/27 03:03:16;;;;;;;232.40;214.18;;;;;;;3.36;83.23;102597.72;4963871;28;20074;-72
2023/01/27 03:05:41;;;;;;;233.95;215.65;;;;;;;3.24;83.51;102594.66;4982232;28;20180;-73
2023/01/27 03:08:07;;;;;;;234.00;215.77;;;;;;;3.23;83.72;102595.66;4980258;28;20364;-72
2023/01/27 03:10:34;;;;;;;234.02;215.68;;;;;;;3.35;83.13;102601.38;4968210;28;20030;-72
2023/01/27 03:12:59;;;;;;;215.90;196.98;;;;;;;3.43;83.10;102593.38;4965941;28;20034;-72
2023/01/27 03:18:15;;;;;;;236.32;217.93;;;;;;;3.27;82.97;102610.19;4980694;28;20109;-72
2023/01/27 03:20:45;;;;;;;233.77;215.48;;;;;;;3.20;83.12;102614.53;4996010;28;20067;-71
2023/01/27 03:23:13;;;;;;;234.27;216.07;;;;;;;3.01;83.85;102620.28;4988957;28;20550;-76
2023/01/27 03:25:41;;;;;;;235.02;216.63;;;;;;;3.08;83.82;102623.06;4966817;28;20515;-72
2023/01/27 03:28:07;;;;;;;214.65;195.48;;;;;;;3.12;83.51;102630.50;4976197;28;20034;-72
2023/01/27 03:30:40;;;;;;;211.00;192.32;;;;;;;3.08;83.08;102625.69;4998500;28;20853;-74
2023/01/27 03:33:13;;;;;;;211.50;192.77;;;;;;;2.96;83.08;102623.44;5004318;28;20192;-71
2023/01/27 03:47:12;;;;;;;211.48;192.63;;;;;;;3.09;82.92;102654.66;4989212;28;20030;-72
2023/01/27 03:49:39;;;;;;;229.85;211.85;;;;;;;2.90;83.01;102652.41;4987712;28;20474;-71
2023/01/27 03:52:05;;;;;;;212.40;193.45;;;;;;;2.91;83.78;102667.28;4985418;28;20076;-73
2023/01/27 03:54:30;;;;;;;233.80;215.48;;;;;;;2.99;83.53;102654.03;4984372;28;20038;-72
2023/01/27 03:56:56;;;;;;;233.55;215.27;;;;;;;2.99;83.38;102654.88;4983711;28;20060;-71
2023/01/27 03:59:22;;;;;;;231.93;213.85;;;;;;;3.01;83.31;102663.44;4967919;28;20061;-71
2023/01/27 04:01:47;;;;;;;232.07;213.98;;;;;;;2.95;82.79;102666.78;4991881;28;20066;-72
2023/01/27 04:06:59;;;;;;;233.32;215.10;;;;;;;2.84;82.86;102664.50;4988751;28;20057;-73
2023/01/27 04:09:27;;;;;;;208.38;189.57;;;;;;;2.72;83.17;102657.97;4986643;28;20045;-73
2023/01/27 04:11:55;;;;;;;232.98;214.95;;;;;;;2.77;83.07;102660.91;4988365;28;20061;-71
2023/01/27 04:14:21;;;;;;;227.82;209.73;;;;;;;2.71;83.18;102674.81;4984639;28;20113;-73
2023/01/27 04:16:47;;;;;;;210.63;191.73;;;;;;;2.62;83.21;102678.47;4969843;28;20452;-72
2023/01/27 04:19:13;;;;;;;213.35;195.05;;;;;;;2.60;83.67;102667.25;5003740;28;20113;-71
2023/01/27 04:21:40;;;;;;;210.30;191.43;;;;;;;2.69;83.67;102674.16;4988914;28;20061;-73
2023/01/27 04:24:16;;;;;;;210.63;191.40;;;;;;;2.57;84.25;102667.56;4989743;28;20054;-71
2023/01/27 04:26:43;;;;;;;211.52;192.55;;;;;;;2.68;83.63;102669.88;5016276;28;20523;-71
2023/01/27 04:29:10;;;;;;;211.02;192.10;;;;;;;2.84;81.91;102672.44;4990235;28;20068;-71
2023/01/27 04:31:35;;;;;;;231.57;213.60;;;;;;;2.76;82.65;102664.53;5002314;28;20050;-71
2023/01/27 04:34:01;;;;;;;225.65;207.35;;;;;;;2.84;82.57;102672.44;4986895;28;20530;-72
2023/01/27 04:36:27;;;;;;;215.90;197.30;;;;;;;2.79;82.32;102672.16;4983401;28;20038;-73
2023/01/27 04:38:52;;;;;;;208.70;189.70;;;;;;;2.84;82.34;102675.09;5013915;28;20038;-73
2023/01/27 04:41:18;;;;;;;208.10;189.18;;;;;;;2.77;82.69;102682.06;5003442;28;20030;-72
2023/01/27 04:43:44;;;;;;;231.65;213.77;;;;;;;2.63;83.70;102685.41;4987251;28;20066;-72
2023/01/27 04:46:09;;;;;;;233.23;215.40;;;;;;;2.73;83.42;102683.41;4970931;28;20038;-71
2023/01/27 04:48:37;;;;;;;208.82;190.13;;;;;;;2.70;83.99;102694.31;4982512;28;20680;-70
2023/01/27 04:51:03;;;;;;;211.15;192.38;;;;;;;2.88;83.38;102691.47;4988119;28;20050;-71
2023/01/27 04:53:28;;;;;;;209.73;191.10;;;;;;;2.82;84.04;102686.84;5006416;28;20056;-72
2023/01/27 04:56:05;;;;;;;233.70;215.45;;;;;;;2.79;83.22;102701.25;4986693;28;20070;-72
2023/01/27 04:58:31;;;;;;;231.35;213.35;;;;;;;2.91;82.95;102699.91;4971076;28;20050;-72
2023/01/27 05:00:56;;;;;;;234.25;215.80;;;;;;;2.97;82.86;102714.25;4991118;28;20034;-72
2023/01/27 05:03:22;;;;;;;213.35;194.15;;;;;;;2.73;83.58;102708.06;4985170;28;20118;-70
2023/01/27 05:05:47;;;;;;;214.13;195.02;;;;;;;2.78;83.51;102704.91;5016038;28;20030;-73
2023/01/27 05:08:13;;;;;;;232.57;214.40;;;;;;;2.90;82.04;102713.28;5001346;28;20042;-71
2023/01/27 05:10:43;;;;;;;231.95;213.48;;;;;;;2.89;82.32;102716.94;4981482;28;20038;-72
2023/01/27 05:13:08;;;;;;;212.80;193.88;;;;;;;2.85;82.57;102713.81;4985998;28;20057;-73
2023/01/27 05:15:34;;;;;;;232.80;214.52;;;;;;;2.82;82.72;102719.44;4982551;28;20034;-75
2023/01/27 05:18:00;;;;;;;234.82;215.95;;;;;;;2.80;82.98;102723.25;4979339;28;20037;-72
2023/01/27 05:20:25;;;;;;;233.32;214.80;;;;;;;2.63;83.82;102723.28;4983270;28;20042;-72
2023/01/27 05:23:33;;;;;;;233.63;215.15;;;;;;;2.68;83.61;102725.41;4983669;28;20171;-72
2023/01/27 05:25:44;;;;;;;213.10;193.93;;;;;;;2.51;84.15;102719.34;4988949;28;20036;-73
2023/01/27 05:28:10;;;;;;;215.77;196.40;;;;;;;2.61;83.46;102735.84;4970947;28;20053;-72
2023/01/27 05:30:36;;;;;;;211.90;192.63;;;;;;;2.72;82.21;102732.84;4972330;28;20026;-72
2023/01/27 05:33:06;;;;;;;233.23;214.73;;;;;;;2.75;82.38;102731.69;4986377;28;20451;-72
2023/01/27 05:35:33;;;;;;;230.95;212.95;;;;;;;2.76;82.50;102728.03;4985630;28;20109;-72
2023/01/27 05:37:59;;;;;;;214.10;195.00;;;;;;;2.85;80.98;102732.34;4987575;28;20065;-73
2023/01/27 05:40:25;;;;;;;212.93;193.90;;;;;;;2.78;80.69;102728.72;4969087;28;20045;-72
2023/01/27 05:42:52;;;;;;;233.68;215.27;;;;;;;2.75;80.63;102721.09;4986959;28;20042;-73
2023/01/27 05:45:18;;;;;;;231.73;213.60;;;;;;;2.76;80.07;102728.03;4987574;28;20042;-71
2023/01/27 05:47:48;;;;;;;210.88;191.98;;;;;;;2.75;80.27;102726.38;4986215;28;20042;-72
2023/01/27 05:50:14;;;;;;;230.68;212.07;;;;;;;2.82;79.26;102718.59;4989948;28;20721;-73
2023/01/27 05:52:40;;;;;;;231.68;213.48;;;;;;;2.72;79.64;102717.00;4991839;28;20033;-72
2023/01/27 05:55:06;;;;;;;234.68;216.73;;;;;;;2.70;80.17;102718.94;5004055;28;20057;-72
2023/01/27 05:57:31;;;;;;;209.10;190.02;;;;;;;2.73;79.59;102716.00;5009912;28;20054;-73
2023/01/27 05:59:57;;;;;;;232.88;214.55;;;;;;;2.67;79.24;102719.31;4989087;28;20053;-72
2023/01/27 06:02:23;;;;;;;232.85;214.88;;;;;;;2.69;78.80;102725.25;4992096;28;20614;-73
2023/01/27 06:04:49;;;;;;;231.45;213.20;;;;;;;2.61;79.03;102730.56;5026139;28;20045;-72
2023/01/27 06:07:14;;;;;;;227.93;209.45;;;;;;;2.76;79.39;102733.34;4991552;28;20054;-72
2023/01/27 06:09:40;;;;;;;215.25;196.40;;;;;;;2.55;79.27;102746.28;5008043;28;20042;-71
2023/01/27 06:12:06;;;;;;;228.60;210.10;;;;;;;2.55;79.58;102755.03;4989906;28;20041;-73
2023/01/27 06:14:31;;;;;;;215.00;196.40;;;;;;;2.53;79.20;102751.75;4985247;28;20030;-71
2023/01/27 06:16:59;;;;;;;228.02;209.65;;;;;;;2.59;78.52;102740.50;4981658;28;20034;-71
2023/01/27 06:19:28;;;;;;;222.95;204.57;;;;;;;2.49;78.75;102741.66;4982014;28;20035;-72
2023/01/27 06:21:54;;;;;;;218.95;200.63;;;;;;;2.55;78.65;102756.84;4965010;28;20080;-72
2023/01/27 06:24:19;;;;;;;218.27;199.63;;;;;;;2.55;78.86;102762.16;4967886;28;20399;-72
2023/01/27 06:26:45;;;;;;;224.45;206.07;;;;;;;2.39;80.03;102763.81;5011845;28;20050;-71
2023/01/27 06:29:11;;;;;;;218.10;199.23;;;;;;;2.42;80.14;102770.56;4966355;28;20061;-73
2023/01/27 06:31:36;;;;;;;219.98;201.38;;;;;;;2.41;80.60;102768.94;5002279;28;20068;-73
2023/01/27 06:34:02;;;;;;;214.38;195.52;;;;;;;2.32;81.33;102772.56;5004422;28;20116;-73
2023/01/27 06:36:28;;;;;;;227.93;209.20;;;;;;;2.31;82.04;102766.47;4981344;28;20476;-72
2023/01/27 06:38:53;;;;;;;228.25;210.25;;;;;;;2.29;81.44;102784.28;4989809;28;20026;-71
2023/01/27 06:41:19;;;;;;;214.57;195.73;;;;;;;2.13;82.36;102779.00;4996177;28;20042;-73
2023/01/27 06:43:44;;;;;;;209.40;190.20;;;;;;;2.21;82.06;102784.28;4988449;28;20050;-71
2023/01/27 06:46:10;;;;;;;236.73;218.10;;;;;;;2.11;82.66;102783.63;4969228;28;20562;-72
2023/01/27 06:48:36;;;;;;;211.95;192.75;;;;;;;2.26;82.57;102794.38;4997253;28;20338;-72
2023/01/27 06:51:02;;;;;;;233.70;215.40;;;;;;;2.01;83.77;102796.16;5006750;28;20084;-72
2023/01/27 06:53:28;;;;;;;211.98;192.88;;;;;;;2.16;83.16;102797.16;5007386;28;20038;-71
2023/01/27 06:56:00;;;;;;;211.60;192.40;;;;;;;2.28;82.72;102797.69;4991599;28;20040;-72
2023/01/27 06:58:29;;;;;;;210.52;191.60;;;;;;;2.14;83.17;102796.50;5003282;28;20112;-72
2023/01/27 07:00:59;;;;;;;233.13;214.70;;;;;;;2.08;83.09;102807.72;4986327;28;20064;-72
2023/01/27 07:03:24;;;;;;;;;;;;;;;1.95;83.42;102812.66;4970323;28;20038;-73
2023/01/27 07:05:51;;;;;;;235.27;217.02;;;;;;;1.87;84.02;102816.13;4993038;28;19920;-73
2023/01/27 07:08:17;;;;;;;207.63;188.68;;;;;;;1.90;84.17;102819.28;4999600;28;20038;-72
2023/01/27 07:10:43;;;;;;;230.55;212.73;;;;;;;1.98;84.06;102822.94;4980490;28;20046;-73
2023/01/27 07:13:13;;;;;;;212.13;192.73;;;;;;;1.79;84.63;102824.03;4998882;28;20034;-73
2023/01/27 07:15:39;;;;;;;214.70;195.55;;;;;;;1.83;84.73;102831.47;4983605;28;20034;-72
2023/01/27 07:18:05;;;;;;;234.70;216.38;;;;;;;1.85;84.40;102840.06;4987197;28;20250;-72
2023/01/27 07:20:32;;;;;;;233.02;214.35;;;;;;;1.86;84.69;102841.72;4984275;28;20265;-72
2023/01/27 07:22:59;;;;;;;230.80;212.18;;;;;;;1.97;84.26;102853.00;4995173;28;20065;-72
2023/01/27 07:25:25;;;;;;;216.18;197.05;;;;;;;1.94;84.41;102850.66;4984450;28;20465;-73
2023/01/27 07:27:57;;;;;;;214.77;195.55;;;;;;;2.03;84.22;102847.88;4980658;28;20038;-73
2023/01/27 07:30:23;;;;;;;209.38;190.68;;;;;;;2.05;83.71;102855.66;4980259;28;20031;-73
2023/01/27 07:32:49;;;;;;;230.65;211.85;;;;;;;2.18;82.78;102858.66;4986680;28;20039;-71
2023/01/27 07:35:16;;;;;;;232.80;213.88;;;;;;;2.22;83.03;102856.50;4996155;28;20048;-73
2023/01/27 07:37:42;;;;;;;232.95;214.32;;;;;;;2.18;83.25;102861.28;4965857;28;20051;-73
2023/01/27 07:40:09;;;;;;;212.70;193.55;;;;;;;2.03;83.23;102862.88;4984206;28;20042;-73
2023/01/27 07:42:39;;;;;;;219.30;200.25;;;;;;;1.98;83.95;102865.22;4989339;28;20046;-73
2023/01/27 07:45:05;;;;;;;232.68;214.15;;;;;;;2.19;83.19;102869.06;4971972;28;20070;-71
2023/01/27 07:47:31;;;;;;;234.07;215.40;;;;;;;2.14;83.23;102870.53;4987542;28;20384;-72
2023/01/27 07:49:57;;;;;;;232.93;214.15;;;;;;;2.09;83.27;102872.81;4976013;28;20557;-73
2023/01/27 07:52:25;;;;;;;232.45;214.15;;;;;;;2.30;82.56;102872.38;4984052;28;20797;-73
2023/01/27 07:54:51;;;;;;;229.60;211.02;;;;;;;2.28;82.37;102875.19;4997066;28;20034;-73
2023/01/27 07:57:20;;;;;;;216.10;197.20;;;;;;;2.25;82.59;102866.75;4974459;28;20064;-72
2023/01/27 07:59:52;;;;;;;212.30;193.43;;;;;;;2.25;82.42;102872.88;4976838;28;20045;-73
2023/01/27 08:02:17;;;;;;;233.10;214.48;;;;;;;2.29;82.14;102879.47;4989533;28;20034;-72
2023/01/27 08:04:43;;;;;;;210.60;191.82;;;;;;;2.37;80.68;102876.88;5007683;28;20042;-73
2023/01/27 08:07:12;;;;;;;232.63;214.43;;;;;;;2.41;80.92;102875.53;4981044;28;20066;-72
2023/01/27 08:09:40;;;;;;;208.40;189.73;;;;;;;2.17;82.08;102878.16;4974118;28;20114;-71
2023/01/27 08:12:08;;;;;;;233.48;215.02;;;;;;;2.09;82.77;102886.03;4990837;28;20049;-73
2023/01/27 08:14:34;;;;;;;221.05;201.90;;;;;;;2.26;82.09;102884.28;4990719;28;20035;-73
2023/01/27 08:17:00;;;;;;;221.02;201.55;;;;;;;2.23;82.16;102880.13;5019941;28;20046;-72
2023/01/27 08:19:26;;;;;;;213.70;194.18;;;;;;;2.13;82.82;102874.16;5004256;28;20406;-73
2023/01/27 08:21:52;;;;;;;214.63;194.95;;;;;;;2.20;82.52;102891.03;4999808;28;20041;-73
2023/01/27 08:24:17;;;;;;;214.82;195.68;;;;;;;2.19;82.68;102889.38;4991901;28;20503;-72
2023/01/27 08:26:44;;;;;;;218.80;199.60;;;;;;;2.31;82.37;102884.63;4972725;28;20751;-73
2023/01/27 08:29:09;;;;;;;213.52;194.30;;;;;;;2.21;82.72;102882.09;4989485;28;20600;-72
2023/01/27 08:31:40;;;;;;;235.15;215.95;;;;;;;2.27;82.44;102885.94;4982816;28;20492;-72
2023/01/27 08:34:07;;;;;;;234.95;216.15;;;;;;;2.34;82.63;102890.41;4985579;28;20038;-72
2023/01/27 08:36:33;;;;;;;214.15;195.15;;;;;;;2.37;82.05;102894.53;4988156;28;20407;-72
2023/01/27 08:39:00;;;;;;;231.23;212.85;;;;;;;2.33;82.61;102888.75;5007146;28;20069;-72
2023/01/27 08:41:26;;;;;;;232.35;214.02;;;;;;;2.38;82.08;102890.91;5023041;28;20034;-73
2023/01/27 08:43:53;;;;;;;236.00;217.23;;;;;;;2.25;82.56;102901.97;4993112;28;20046;-72
2023/01/27 08:46:19;;;;;;;235.52;216.48;;;;;;;2.34;82.23;102897.50;4968449;28;20042;-72
2023/01/27 08:48:45;;;;;;;215.32;195.82;;;;;;;2.39;82.65;102901.31;5001820;28;20125;-72
2023/01/27 08:51:13;;;;;;;234.90;216.32;;;;;;;2.52;82.12;102900.84;4985666;28;20121;-74
2023/01/27 08:53:39;;;;;;;214.68;195.27;;;;;;;2.42;82.67;102901.00;5008888;28;20062;-71
2023/01/27 08:56:07;;;;;;;216.30;196.70;;;;;;;2.47;81.71;102903.97;4991925;28;20065;-72
2023/01/27 08:58:34;;;;;;;211.75;193.02;;;;;;;2.68;80.85;102916.72;4987209;28;20100;-73
2023/01/27 09:01:05;;;;;;;232.50;213.90;;;;;;;2.66;80.93;102915.25;4989668;28;20038;-74
2023/01/27 09:03:32;;;;;;;231.70;213.25;;;;;;;2.75;80.61;102916.91;4989555;28;20039;-72
2023/01/27 09:05:59;;;;;;;232.95;214.20;;;;;;;2.73;81.03;102924.19;4968848;28;20519;-73
2023/01/27 09:08:28;;;;;;;212.05;193.15;;;;;;;2.83;79.88;102924.84;4967872;28;20070;-72
2023/01/27 09:10:54;;;;;;;232.05;213.55;;;;;;;2.84;78.69;102915.91;4985555;28;20073;-70
2023/01/27 09:13:22;;;;;;;235.57;216.77;;;;;;;2.77;79.75;102924.66;4981637;28;20447;-73
2023/01/27 09:15:52;;;;;;;233.90;215.48;;;;;;;2.86;79.68;102926.34;4981580;28;20038;-72
2023/01/27 09:18:19;;;;;;;234.38;215.82;;;;;;;2.80;79.28;102919.88;4994130;28;20040;-72
2023/01/27 09:20:45;;;;;;;235.45;216.80;;;;;;;2.98;79.45;102917.91;4988900;28;20043;-72
2023/01/27 09:23:10;;;;;;;233.40;215.07;;;;;;;2.97;78.87;102921.53;4998046;28;20065;-71
2023/01/27 09:25:36;;;;;;;212.95;193.95;;;;;;;3.07;79.87;102926.69;4981298;28;20039;-72
2023/01/27 09:28:02;;;;;;;214.27;195.10;;;;;;;3.34;77.54;102928.13;4985161;28;20129;-71
2023/01/27 09:30:28;;;;;;;232.40;213.93;;;;;;;3.18;77.09;102917.53;5017469;28;20039;-73
2023/01/27 09:33:02;;;;;;;213.82;194.80;;;;;;;3.45;74.88;102930.41;5013504;28;20066;-72
2023/01/27 09:35:34;;;;;;;230.40;211.60;;;;;;;3.28;74.55;102936.75;4982814;28;20582;-73
2023/01/27 09:38:02;;;;;;;213.68;194.43;;;;;;;3.28;74.85;102939.41;4971131;28;20038;-72
2023/01/27 09:40:36;;;;;;;220.10;201.07;;;;;;;3.55;73.25;102936.38;4982389;28;20031;-73
2023/01/27 09:43:32;;;;;;;231.68;212.88;;;;;;;3.31;74.08;102925.81;4970580;28;20056;-72
2023/01/27 09:46:27;;;;;;;232.23;212.93;;;;;;;3.20;74.56;102928.81;5005122;28;20220;-71
2023/01/27 09:49:12;;;;;;;213.70;194.52;;;;;;;3.04;73.91;102937.56;4974229;28;20133;-71
2023/01/27 09:52:09;;;;;;;222.05;202.93;;;;;;;2.90;75.04;102939.06;4987031;28;20064;-72
2023/01/27 09:55:06;;;;;;;212.98;193.68;;;;;;;2.75;75.29;102935.44;4999394;28;20085;-71
2023/01/27 09:57:53;;;;;;;210.82;191.77;;;;;;;2.68;75.77;102937.06;5003111;28;20030;-71
2023/01/27 10:00:43;;;;;;;235.40;217.15;;;;;;;2.73;74.41;102940.06;4999856;28;20038;-70
2023/01/27 10:03:50;;;;;;;169.32;143.63;;;;;;;2.78;74.97;102948.34;4981902;28;20158;-73
2023/01/27 10:06:28;;;;;;;234.00;215.65;;;;;;;2.68;75.59;102948.47;4963119;28;20050;-70
2023/01/27 10:09:14;;;;;;;214.00;194.60;;;;;;;2.89;74.29;102949.81;4975605;28;20133;-74
2023/01/27 10:11:40;;;;;;;232.70;214.40;;;;;;;3.13;73.31;102951.66;4986111;28;20109;-71
2023/01/27 10:14:14;;;;;;;233.32;213.88;;;;;;;3.01;74.36;102944.03;4998526;28;20625;-72
2023/01/27 10:17:08;;;;;;;235.75;217.02;;;;;;;3.15;73.16;102941.72;4996552;28;20034;-72
2023/01/27 10:20:12;;;;;;;221.75;202.40;;;;;;;3.52;72.14;102943.81;5002747;28;20515;-72
2023/01/27 10:22:56;;;;;;;213.93;194.88;;;;;;;3.42;71.35;102941.34;4965798;28;20500;-72
2023/01/27 10:25:41;;;;;;;227.73;208.93;;;;;;;3.54;71.93;102942.66;4982371;28;20046;-72
2023/01/27 10:28:12;;;;;;;234.57;215.30;;;;;;;3.62;70.66;102946.28;5001203;28;20030;-71
2023/01/27 10:30:46;;;;;;;234.88;215.75;;;;;;;3.31;71.81;102941.69;4980338;28;20042;-72
2023/01/27 10:33:18;;;;;;;230.82;211.95;;;;;;;3.46;70.90;102948.00;4993178;28;20487;-71
2023/01/27 10:35:51;;;;;;;215.93;196.63;;;;;;;3.10;72.32;102944.03;4979421;28;20041;-71
2023/01/27 10:38:50;;;;;;;233.73;215.02;;;;;;;3.33;72.03;102930.97;4985128;28;20049;-72
2023/01/27 10:41:35;;;;;;;232.85;214.07;;;;;;;3.25;71.29;102945.00;4968974;28;20046;-72
2023/01/27 10:44:03;;;;;;;232.05;213.52;;;;;;;3.47;71.70;102946.97;4999103;28;20745;-72
2023/01/27 10:47:08;;;;;;;217.70;198.38;;;;;;;3.11;71.75;102943.03;4998184;28;20049;-72
2023/01/27 10:49:56;;;;;;;228.50;210.27;;;;;;;3.10;72.93;102941.38;4984018;28;20109;-73
2023/01/27 10:52:26;;;;;;;207.90;188.80;;;;;;;3.08;72.29;102938.09;4985076;28;20041;-71
2023/01/27 10:54:59;;;;;;;229.98;211.88;;;;;;;3.03;71.66;102937.75;4986370;28;20065;-72
2023/01/27 10:57:40;;;;;;;212.80;194.00;;;;;;;3.13;72.56;102936.59;4989840;28;20124;-71
2023/01/27 11:00:16;;;;;;;224.98;205.32;;;;;;;3.08;72.79;102938.09;4982570;28;20479;-71
2023/01/27 11:02:56;;;;;;;213.98;194.77;;;;;;;3.29;70.97;102927.81;4994315;28;20041;-70
2023/01/27 11:05:30;;;;;;;229.60;210.52;;;;;;;3.23;72.37;102931.94;4984479;28;20882;-72
2023/01/27 11:08:03;;;;;;;213.95;194.48;;;;;;;3.14;72.49;102932.13;4983614;28;20042;-72
2023/01/27 11:10:37;;;;;;;230.25;211.10;;;;;;;2.98;72.93;102927.66;4980822;28;20488;-72
2023/01/27 11:13:05;;;;;;;230.60;211.45;;;;;;;2.97;72.71;102926.81;4982631;28;20520;-71
2023/01/27 11:15:33;;;;;;;229.63;210.70;;;;;;;3.21;71.00;102927.81;4980734;28;20030;-71
2023/01/27 11:18:04;;;;;;;222.50;202.70;;;;;;;3.09;72.32;102923.84;4994652;28;20042;-72
2023/01/27 11:20:39;;;;;;;224.65;205.35;;;;;;;3.06;70.55;102919.72;4994394;28;20501;-71
2023/01/27 11:23:26;;;;;;;234.70;215.80;;;;;;;3.07;70.82;102931.97;4968773;28;20396;-72
2023/01/27 11:26:00;;;;;;;232.05;212.88;;;;;;;3.26;68.52;102936.09;4980663;28;20038;-72
2023/01/27 11:28:48;;;;;;;217.93;198.82;;;;;;;3.10;69.37;102930.78;4964687;28;20052;-73
2023/01/27 11:31:34;;;;;;;220.05;200.55;;;;;;;2.96;69.56;102925.19;4978123;28;20133;-71
2023/01/27 11:34:05;;;;;;;209.40;190.20;;;;;;;2.86;69.89;102927.19;4998100;28;20038;-72
2023/01/27 11:36:33;;;;;;;232.60;213.90;;;;;;;3.06;70.56;102929.50;4989373;28;20062;-71
2023/01/27 11:39:03;;;;;;;229.30;210.65;;;;;;;3.08;69.26;102919.56;4999715;28;20038;-71
2023/01/27 11:41:32;;;;;;;217.23;198.05;;;;;;;2.99;69.52;102930.16;4987213;28;20034;-74